Flag for USA

Past Weather in 39°57'41.2"N, 76°44'20.6"W, USA — Yesterday and Last 2 Weeks

Currently: 36 °F. Overcast. (Weather station: Capital City Airport, USA). See more current weather

Past Weather in 39°57'41.2"N, 76°44'20.6"W — Graph

°F

39°57'41.2"N, 76°44'20.6"W Temperature Yesterday

Maximum temperature yesterday: 43 °F (at 2:56 pm)
Minimum temperature yesterday: 35 °F (at 4:56 am)
Average temperature yesterday: 38 °F

High & Low Weather Summary for the Past Weeks

 TemperatureHumidityPressure
High50 °F (Jan 14, 2:56 pm)93% (Jan 16, 12:28 am)30.34 "Hg (Jan 16, 12:28 am)
Low24 °F (Jan 11, 1:56 am)23% (Jan 9, 12:56 pm)29.46 "Hg (Jan 16, 1:56 pm)
Average37 °F64%29.97 "Hg
* Reported Jan 3 11:56 pm — Jan 18 11:56 pm, 39°57'41.2"N, 76°44'20.6"W. Weather by CustomWeather, © 2021

Note: Actual official high and low records may vary slightly from our data, if they occured in-between our weather recording intervals... More about our weather records

39°57'41.2"N, 76°44'20.6"W Weather History for the Previous 24 Hours

Scroll right to see more
 ConditionsComfort  
Time TempWeatherWind HumidityBarometerVisibility
11:56 pm
Mon, Jan 18
36 °FOvercast.7 mph59%30.03 "Hg10 mi
10:56 pm35 °FPassing clouds.5 mph59%30.03 "Hg10 mi
9:56 pm36 °FOvercast.7 mph57%30.01 "Hg10 mi
8:56 pm35 °FPassing clouds.6 mph54%30.00 "Hg10 mi
7:56 pm36 °FPassing clouds.7 mph52%29.98 "Hg10 mi
6:56 pm38 °FPassing clouds.9 mph46%29.96 "Hg10 mi
5:56 pm38 °FPassing clouds.8 mph46%29.94 "Hg10 mi
4:56 pm40 °FMostly cloudy.13 mph41%29.90 "Hg10 mi
3:56 pm42 °FPartly sunny.13 mph41%29.85 "Hg10 mi
2:56 pm43 °FOvercast.16 mph40%29.82 "Hg10 mi
1:56 pm42 °FMostly cloudy.12 mph47%29.80 "Hg10 mi
12:56 pm42 °FBroken clouds.15 mph47%29.78 "Hg10 mi
11:56 am42 °FBroken clouds.12 mph51%29.79 "Hg10 mi
10:56 am41 °FOvercast.10 mph53%29.81 "Hg10 mi
9:56 am41 °FOvercast.13 mph53%29.80 "Hg10 mi
8:56 am39 °FPartly sunny.8 mph62%29.78 "Hg10 mi
7:56 am36 °FMostly cloudy.3 mph67%29.77 "Hg10 mi
6:56 am35 °FMostly cloudy.5 mph70%29.75 "Hg10 mi
5:56 am35 °FPassing clouds.5 mph70%29.74 "Hg10 mi
4:56 am35 °FClear.5 mph70%29.73 "Hg10 mi
3:56 am38 °FPassing clouds.No wind65%29.73 "Hg10 mi
2:56 am38 °FPassing clouds.3 mph68%29.74 "Hg10 mi
1:56 am39 °FOvercast.6 mph67%29.73 "Hg10 mi
Weather by CustomWeather, © 2021

See weather overview